Time;durP1;ratioP1;P1;durP2;ratioP2;P2;SDS_P1;SDS_P2;PMS_P1;PMS_P2;Temp;Humidity;BMP_temperature;BMP_pressure;BME280_temperature;BME280_humidity;BME280_pressure;Samples;Min_cycle;Max_cycle;Signal;HPM_P1;HPM_P2
2023/07/26 00:03:54;;;;;;;8.32;4.57;;;12.60;99.90;;;;;;8434159;28;20537;-82
2023/07/26 00:07:55;;;;;;;9.25;4.15;;;12.50;99.90;;;;;;8408276;28;20060;-82
2023/07/26 00:11:55;;;;;;;7.05;4.57;;;12.70;99.90;;;;;;8407683;28;20016;-82
2023/07/26 00:15:56;;;;;;;8.02;4.07;;;12.70;99.90;;;;;;8410220;28;20089;-82
2023/07/26 00:19:57;;;;;;;6.75;4.32;;;12.60;99.90;;;;;;8440171;28;20028;-83
2023/07/26 00:23:58;;;;;;;8.35;4.50;;;12.60;99.90;;;;;;8410716;28;20054;-82
2023/07/26 00:27:59;;;;;;;10.15;4.70;;;12.70;99.90;;;;;;8432292;28;20555;-82
2023/07/26 00:31:59;;;;;;;7.68;4.88;;;12.50;99.90;;;;;;8416459;28;20031;-82
2023/07/26 00:36:00;;;;;;;8.85;5.50;;;12.50;99.90;;;;;;8416226;28;20483;-82
2023/07/26 00:40:00;;;;;;;8.52;5.05;;;12.50;99.90;;;;;;8410545;28;20020;-82
2023/07/26 00:44:01;;;;;;;6.20;4.32;;;12.50;99.90;;;;;;8401289;28;20021;-82
2023/07/26 00:48:02;;;;;;;10.80;5.45;;;12.50;99.90;;;;;;8412605;28;20024;-82
2023/07/26 00:52:02;;;;;;;11.90;4.95;;;12.40;99.90;;;;;;8408885;28;20024;-83
2023/07/26 00:56:03;;;;;;;11.65;5.85;;;12.60;99.90;;;;;;8417625;28;20073;-82
2023/07/26 01:00:05;;;;;;;10.10;6.93;;;12.40;99.90;;;;;;8420228;28;20012;-83
2023/07/26 01:04:06;;;;;;;10.10;6.38;;;12.30;99.90;;;;;;8436349;28;20032;-82
2023/07/26 01:08:13;;;;;;;10.52;6.72;;;12.40;99.90;;;;;;8402897;28;20028;-83
2023/07/26 01:12:19;;;;;;;9.73;6.90;;;12.20;99.90;;;;;;8422011;28;20020;-82
2023/07/26 01:16:20;;;;;;;11.77;8.13;;;12.10;99.90;;;;;;8404420;28;20032;-83
2023/07/26 01:20:21;;;;;;;18.92;8.43;;;12.00;99.90;;;;;;8413090;28;20016;-83
2023/07/26 01:24:21;;;;;;;18.73;7.70;;;12.00;99.90;;;;;;8439381;28;20287;-83
2023/07/26 01:28:22;;;;;;;13.05;7.90;;;12.00;99.90;;;;;;8420005;28;20115;-83
2023/07/26 01:32:25;;;;;;;16.23;8.80;;;12.20;99.90;;;;;;8411847;28;20024;-82
2023/07/26 01:36:29;;;;;;;13.23;9.02;;;12.10;99.90;;;;;;8407138;28;20089;-83
2023/07/26 01:40:30;;;;;;;19.45;9.45;;;11.90;99.90;;;;;;8414470;28;20032;-83
2023/07/26 01:44:37;;;;;;;15.95;9.80;;;12.00;99.90;;;;;;8405126;28;20028;-83
2023/07/26 01:48:38;;;;;;;15.95;10.38;;;12.00;99.90;;;;;;8416099;28;20470;-83
2023/07/26 01:52:38;;;;;;;18.27;10.85;;;11.70;99.90;;;;;;8441404;28;20307;-83
2023/07/26 01:56:39;;;;;;;22.67;11.63;;;11.70;99.90;;;;;;8448756;28;20052;-83
2023/07/26 02:00:39;;;;;;;21.02;11.63;;;11.50;99.90;;;;;;8456107;28;20616;-83
2023/07/26 02:04:40;;;;;;;25.02;11.73;;;11.60;99.90;;;;;;8458858;28;20032;-83
2023/07/26 02:08:40;;;;;;;20.80;11.02;;;11.80;99.90;;;;;;8464740;28;20034;-83
2023/07/26 02:12:41;;;;;;;22.25;11.68;;;12.10;99.90;;;;;;8457612;28;20038;-83
2023/07/26 02:16:42;;;;;;;24.88;12.45;;;11.90;99.90;;;;;;8428496;28;20445;-83
2023/07/26 02:20:42;;;;;;;16.77;10.57;;;11.90;99.90;;;;;;8447402;28;20012;-82
2023/07/26 02:24:43;;;;;;;21.73;11.68;;;11.80;99.90;;;;;;8457074;28;20024;-83
2023/07/26 02:28:43;;;;;;;21.48;11.02;;;11.90;99.90;;;;;;8454001;28;20020;-83
2023/07/26 02:32:44;;;;;;;20.00;11.68;;;11.90;99.90;;;;;;8444542;28;20020;-83
2023/07/26 02:36:44;;;;;;;19.27;11.23;;;11.80;99.90;;;;;;8423022;28;20723;-83
2023/07/26 02:40:45;;;;;;;22.48;13.40;;;11.80;99.90;;;;;;8456568;28;20388;-83
2023/07/26 02:44:47;;;;;;;21.75;13.15;;;11.90;99.90;;;;;;8418880;28;20016;-83
2023/07/26 02:48:47;;;;;;;24.17;12.70;;;12.00;99.90;;;;;;8418757;28;20016;-82
2023/07/26 02:52:48;;;;;;;20.13;13.02;;;12.20;99.90;;;;;;8403293;28;20070;-83
2023/07/26 02:56:48;;;;;;;23.17;13.77;;;12.20;99.90;;;;;;8451121;28;20028;-83
2023/07/26 03:00:52;;;;;;;20.23;14.05;;;12.00;99.90;;;;;;8417590;28;20070;-83
2023/07/26 03:04:52;;;;;;;20.67;13.43;;;12.10;99.90;;;;;;8408980;28;20020;-83
2023/07/26 03:08:53;;;;;;;18.65;13.63;;;12.20;99.90;;;;;;8441541;28;20064;-83
2023/07/26 03:12:55;;;;;;;20.13;13.13;;;12.10;99.90;;;;;;8441201;28;20023;-83
2023/07/26 03:16:55;;;;;;;22.60;13.45;;;12.10;99.90;;;;;;8433770;28;20020;-82
2023/07/26 03:20:56;;;;;;;26.83;14.65;;;12.10;99.90;;;;;;8434058;28;20058;-83
2023/07/26 03:24:56;;;;;;;22.10;13.32;;;11.90;99.90;;;;;;8414746;28;20221;-82
2023/07/26 03:28:57;;;;;;;24.95;14.27;;;12.10;99.90;;;;;;8446613;28;20396;-82
2023/07/26 03:32:57;;;;;;;18.85;13.05;;;12.10;99.90;;;;;;8446828;28;20020;-82
2023/07/26 03:36:58;;;;;;;19.00;13.52;;;12.20;99.90;;;;;;8446119;28;20048;-82
2023/07/26 03:40:58;;;;;;;23.20;13.00;;;12.10;99.90;;;;;;8421842;28;20028;-82
2023/07/26 03:44:59;;;;;;;21.27;12.98;;;12.00;99.90;;;;;;8395804;28;20727;-82
2023/07/26 03:48:59;;;;;;;23.60;13.13;;;11.90;99.90;;;;;;8411817;28;20016;-82
2023/07/26 03:53:00;;;;;;;18.50;11.82;;;11.90;99.90;;;;;;8437709;28;20024;-82
2023/07/26 03:57:00;;;;;;;16.98;11.32;;;11.90;99.90;;;;;;8445238;28;20441;-82
2023/07/26 04:01:01;;;;;;;17.63;10.43;;;11.80;99.90;;;;;;8437129;28;20020;-82
2023/07/26 04:05:02;;;;;;;17.75;10.93;;;11.90;99.90;;;;;;8444802;28;20028;-83
2023/07/26 04:09:02;;;;;;;13.65;10.50;;;11.90;99.90;;;;;;8423598;28;20074;-82
2023/07/26 04:13:03;;;;;;;17.38;9.98;;;11.80;99.90;;;;;;8405262;28;20035;-83
2023/07/26 04:17:04;;;;;;;16.35;9.77;;;12.00;99.90;;;;;;8396297;28;20038;-83
2023/07/26 04:21:04;;;;;;;18.00;11.30;;;11.90;99.90;;;;;;8402319;28;20635;-83
2023/07/26 04:25:05;;;;;;;15.98;11.52;;;11.70;99.90;;;;;;8441595;28;20023;-83
2023/07/26 04:29:06;;;;;;;18.30;11.30;;;11.60;99.90;;;;;;8411113;28;20480;-83
2023/07/26 04:33:06;;;;;;;13.88;9.85;;;11.60;99.90;;;;;;8421302;28;20016;-82
2023/07/26 04:37:07;;;;;;;16.17;8.82;;;11.70;99.90;;;;;;8410412;28;20077;-83
2023/07/26 04:41:08;;;;;;;13.75;8.23;;;11.80;99.90;;;;;;8414051;28;20073;-83
2023/07/26 04:45:09;;;;;;;10.73;7.28;;;11.70;99.90;;;;;;8410658;28;20100;-83
2023/07/26 04:49:10;;;;;;;9.60;7.90;;;11.90;99.90;;;;;;8412030;28;20035;-83
2023/07/26 04:53:10;;;;;;;13.10;7.75;;;11.90;99.90;;;;;;8403251;28;20054;-83
2023/07/26 04:57:11;;;;;;;11.38;7.47;;;11.90;99.90;;;;;;8409216;28;20484;-84
2023/07/26 05:01:11;;;;;;;8.13;6.00;;;12.30;99.90;;;;;;8402222;28;20024;-83
2023/07/26 05:05:12;;;;;;;8.00;5.90;;;12.30;99.90;;;;;;8423500;28;20035;-85
2023/07/26 05:09:12;;;;;;;5.72;4.30;;;12.20;99.90;;;;;;8440040;28;20028;-84
2023/07/26 05:13:13;;;;;;;6.07;4.32;;;12.30;99.90;;;;;;8427518;28;20040;-84
2023/07/26 05:17:14;;;;;;;3.53;3.20;;;12.30;99.90;;;;;;8434749;28;20035;-84
2023/07/26 05:21:14;;;;;;;4.13;3.28;;;12.30;99.90;;;;;;8430483;28;20020;-84
2023/07/26 05:25:15;;;;;;;4.10;3.05;;;12.20;99.90;;;;;;8433160;28;20027;-84
2023/07/26 05:29:15;;;;;;;6.45;3.85;;;12.30;99.90;;;;;;8436300;28;20514;-84
2023/07/26 05:33:16;;;;;;;5.82;4.22;;;12.20;99.90;;;;;;8435072;28;20105;-85
2023/07/26 05:37:16;;;;;;;5.93;4.72;;;12.20;99.90;;;;;;8426047;28;20023;-85
2023/07/26 05:41:17;;;;;;;6.15;4.93;;;12.20;99.90;;;;;;8426393;28;20028;-84
2023/07/26 05:45:17;;;;;;;8.13;6.50;;;12.10;99.90;;;;;;8438785;28;20507;-85
2023/07/26 05:49:18;;;;;;;11.25;7.70;;;12.30;99.90;;;;;;8407959;28;20081;-85
2023/07/26 05:53:19;;;;;;;10.55;8.00;;;12.40;99.90;;;;;;8422624;28;20024;-84
2023/07/26 05:57:19;;;;;;;11.45;7.82;;;12.60;99.90;;;;;;8404355;28;20035;-85
2023/07/26 06:01:20;;;;;;;13.30;7.65;;;12.70;99.90;;;;;;8411756;28;20023;-78
2023/07/26 06:05:20;;;;;;;13.00;9.05;;;13.00;99.90;;;;;;8420788;28;20066;-78
2023/07/26 06:09:22;;;;;;;10.18;5.05;;;12.70;99.90;;;;;;8412838;28;20123;-77
2023/07/26 06:13:22;;;;;;;5.78;3.55;;;12.50;99.90;;;;;;8414227;28;20051;-80
2023/07/26 06:17:23;;;;;;;4.05;2.83;;;12.10;99.90;;;;;;8416899;28;20500;-81
2023/07/26 06:21:23;;;;;;;3.28;2.33;;;11.80;99.90;;;;;;8416583;28;20028;-80
2023/07/26 06:25:24;;;;;;;2.60;2.28;;;11.70;99.90;;;;;;8417464;28;20100;-81
2023/07/26 06:29:25;;;;;;;5.40;3.70;;;11.80;99.90;;;;;;8408698;28;20024;-82
2023/07/26 06:33:25;;;;;;;3.85;3.22;;;11.90;99.90;;;;;;8422650;28;20023;-82
2023/07/26 06:37:26;;;;;;;5.10;3.42;;;12.10;99.90;;;;;;8401538;28;20461;-82
2023/07/26 06:41:27;;;;;;;6.63;3.47;;;12.30;99.90;;;;;;8404286;28;20023;-83
2023/07/26 06:45:27;;;;;;;4.72;3.65;;;12.30;99.90;;;;;;8412437;28;20050;-82
2023/07/26 06:49:28;;;;;;;4.40;3.53;;;12.70;99.90;;;;;;8405228;28;20119;-82
2023/07/26 06:53:28;;;;;;;3.72;3.30;;;13.10;99.90;;;;;;8441922;28;20403;-82
2023/07/26 06:57:29;;;;;;;3.13;2.63;;;13.30;99.90;;;;;;8422907;28;20040;-82
2023/07/26 07:01:29;;;;;;;5.45;2.67;;;13.60;99.90;;;;;;8410029;28;20032;-83
2023/07/26 07:05:33;;;;;;;5.05;2.53;;;14.10;99.90;;;;;;8417531;28;20514;-83
2023/07/26 07:09:33;;;;;;;3.45;3.15;;;14.30;99.90;;;;;;8411372;28;20023;-83
2023/07/26 07:13:36;;;;;;;5.97;3.65;;;14.70;99.90;;;;;;8401689;28;20111;-84
2023/07/26 07:17:36;;;;;;;6.68;4.30;;;14.70;99.90;;;;;;8400545;28;20059;-84
2023/07/26 07:21:37;;;;;;;6.43;4.90;;;14.50;99.90;;;;;;8437892;28;20051;-84
2023/07/26 07:25:38;;;;;;;12.85;6.38;;;14.40;99.90;;;;;;8396405;28;20059;-84
2023/07/26 07:29:39;;;;;;;8.43;6.13;;;14.20;99.90;;;;;;8402037;28;20024;-84
2023/07/26 07:33:40;;;;;;;8.50;7.18;;;14.30;99.90;;;;;;8410611;28;20563;-84
2023/07/26 07:37:40;;;;;;;9.63;6.65;;;14.30;99.90;;;;;;8414434;28;20039;-84
2023/07/26 07:41:41;;;;;;;9.15;7.32;;;14.20;99.90;;;;;;8419971;28;20074;-83
2023/07/26 07:45:42;;;;;;;9.68;6.93;;;14.30;99.90;;;;;;8427635;28;20035;-84
2023/07/26 07:49:42;;;;;;;9.93;7.25;;;14.40;99.90;;;;;;8443888;28;20042;-84
2023/07/26 07:53:43;;;;;;;14.13;6.95;;;14.70;99.90;;;;;;8409053;28;20035;-85
2023/07/26 07:57:43;;;;;;;10.98;7.15;;;15.00;99.90;;;;;;8420105;28;20024;-85
2023/07/26 08:01:44;;;;;;;9.00;7.13;;;15.30;99.90;;;;;;8409041;28;20020;-85
2023/07/26 08:05:44;;;;;;;10.48;6.97;;;15.40;99.90;;;;;;8414040;28;20016;-84
2023/07/26 08:09:45;;;;;;;10.45;6.75;;;15.70;99.90;;;;;;8430721;28;20040;-85
2023/07/26 08:13:45;;;;;;;6.93;5.53;;;16.10;99.90;;;;;;8403936;28;20024;-84
2023/07/26 08:17:46;;;;;;;6.88;4.97;;;16.90;99.90;;;;;;8410189;28;20221;-85
2023/07/26 08:21:46;;;;;;;8.38;5.30;;;17.10;99.90;;;;;;8403062;28;20020;-86
2023/07/26 08:25:47;;;;;;;7.65;5.85;;;17.20;99.90;;;;;;8395736;28;20065;-86
2023/07/26 08:29:47;;;;;;;5.55;4.13;;;17.40;99.90;;;;;;8391498;28;20028;-87
2023/07/26 08:33:48;;;;;;;6.80;4.90;;;18.10;99.90;;;;;;8403421;28;20024;-87
2023/07/26 08:37:48;;;;;;;7.70;4.72;;;18.10;99.90;;;;;;8405437;28;20024;-87
2023/07/26 08:41:49;;;;;;;6.28;4.40;;;18.80;99.90;;;;;;8414117;28;20047;-87
2023/07/26 08:45:50;;;;;;;6.93;3.75;;;19.30;99.90;;;;;;8435648;28;20032;-86
2023/07/26 08:49:51;;;;;;;7.45;3.80;;;20.00;99.90;;;;;;8410553;28;20020;-87
2023/07/26 08:53:52;;;;;;;5.32;3.47;;;20.60;99.90;;;;;;8410575;28;20068;-86
2023/07/26 08:57:53;;;;;;;3.47;2.95;;;21.60;99.90;;;;;;8409929;28;20484;-86
2023/07/26 09:01:55;;;;;;;4.78;3.47;;;21.00;99.90;;;;;;8404254;28;20024;-85
2023/07/26 09:06:03;;;;;;;9.35;3.47;;;19.70;99.90;;;;;;8414983;28;20048;-85
2023/07/26 09:10:04;;;;;;;6.15;3.30;;;18.80;99.90;;;;;;8414729;28;20027;-84
2023/07/26 09:14:05;;;;;;;3.63;3.00;;;17.70;99.90;;;;;;8432343;28;20028;-83
2023/07/26 09:48:35;;;;;;;;;;;16.20;99.90;;;;;;8330020;27;1234644;-82
2023/07/26 09:52:36;;;;;;;3.63;2.20;;;19.50;99.90;;;;;;8363072;28;19923;-83
2023/07/26 09:56:40;;;;;;;2.80;2.10;;;19.20;99.90;;;;;;8369641;28;20151;-83
2023/07/26 10:00:41;;;;;;;3.63;2.70;;;19.10;99.90;;;;;;8371724;28;20017;-83
2023/07/26 10:04:49;;;;;;;11.55;4.32;;;18.40;99.90;;;;;;8358463;28;20124;-81
2023/07/26 10:08:50;;;;;;;5.82;4.13;;;16.50;99.90;;;;;;8364808;28;20056;-84
2023/07/26 10:12:52;;;;;;;7.00;5.18;;;15.40;99.90;;;;;;8353485;28;20025;-83
2023/07/26 10:16:54;;;;;;;7.28;5.20;;;15.10;99.90;;;;;;8358428;28;20100;-83
2023/07/26 10:20:57;;;;;;;6.22;4.75;;;15.90;99.90;;;;;;8368259;28;20021;-84
2023/07/26 10:24:58;;;;;;;6.65;3.85;;;18.00;99.90;;;;;;8378599;28;20029;-82
2023/07/26 10:28:59;;;;;;;3.88;3.42;;;18.50;99.90;;;;;;8383706;28;20025;-83
2023/07/26 10:33:00;;;;;;;4.32;2.38;;;18.70;99.90;;;;;;8378068;28;20025;-83
2023/07/26 10:37:19;;;;;;;5.32;2.35;;;19.60;99.90;;;;;;8360495;28;20040;-83
2023/07/26 10:41:25;;;;;;;4.70;2.53;;;19.50;99.90;;;;;;8354161;28;20025;-84
2023/07/26 10:45:44;;;;;;;4.13;2.30;;;19.50;99.90;;;;;;8370467;28;20033;-84
2023/07/26 10:49:46;;;;;;;4.55;2.70;;;19.30;99.90;;;;;;8348079;28;20028;-84
2023/07/26 10:53:47;;;;;;;5.20;2.70;;;19.30;99.90;;;;;;8340036;28;20021;-82
2023/07/26 10:57:48;;;;;;;8.35;2.50;;;18.90;99.90;;;;;;8346705;28;20094;-83
2023/07/26 11:01:49;;;;;;;5.70;2.00;;;19.40;99.90;;;;;;8337181;28;20119;-81
2023/07/26 11:05:56;;;;;;;4.70;2.20;;;20.00;99.90;;;;;;8326470;28;20104;-81
2023/07/26 11:10:19;;;;;;;3.92;1.70;;;20.40;99.90;;;;;;8341151;28;20021;-83
2023/07/26 11:14:20;;;;;;;6.18;2.05;;;20.20;99.90;;;;;;8358275;28;20036;-83
2023/07/26 11:18:21;;;;;;;2.65;1.60;;;19.60;99.90;;;;;;8353532;28;20538;-83
2023/07/26 11:22:21;;;;;;;2.60;1.52;;;20.10;99.90;;;;;;8354996;28;20083;-83
2023/07/26 11:26:22;;;;;;;1.65;1.25;;;21.10;99.90;;;;;;8332656;28;20025;-82
2023/07/26 11:30:22;;;;;;;1.10;1.00;;;20.70;99.90;;;;;;8338095;28;20144;-82
2023/07/26 11:34:23;;;;;;;2.25;1.40;;;19.40;99.90;;;;;;8338979;28;20017;-83
2023/07/26 11:38:23;;;;;;;1.83;1.10;;;17.50;99.90;;;;;;8355456;28;20521;-82
2023/07/26 11:42:24;;;;;;;2.60;1.35;;;16.30;99.90;;;;;;8329150;28;20033;-82
2023/07/26 11:46:28;;;;;;;4.57;1.33;;;15.50;99.90;;;;;;8330228;28;20108;-82
2023/07/26 11:50:29;;;;;;;3.72;1.58;;;14.90;99.90;;;;;;8357326;28;20109;-82
2023/07/26 11:54:29;;;;;;;2.25;1.35;;;13.80;99.90;;;;;;8360875;28;20029;-83
2023/07/26 11:58:34;;;;;;;4.28;1.77;;;12.60;99.90;;;;;;8332717;28;20112;-82
2023/07/26 12:02:34;;;;;;;5.63;1.77;;;12.00;99.90;;;;;;8341923;28;20056;-83
2023/07/26 12:06:35;;;;;;;11.07;6.40;;;11.80;99.90;;;;;;8357021;28;20025;-82
2023/07/26 12:10:38;;;;;;;6.10;3.30;;;11.90;99.90;;;;;;8352977;28;20068;-80
2023/07/26 12:19:35;;;;;;;1.77;1.55;;;11.60;99.90;;;;;;8329731;28;20039;-83
2023/07/26 12:23:56;;;;;;;2.75;1.40;;;11.10;99.90;;;;;;8336443;28;20025;-86
2023/07/26 12:27:57;;;;;;;2.70;2.00;;;11.00;99.90;;;;;;8330876;28;20033;-84
2023/07/26 12:32:03;;;;;;;1.95;1.40;;;11.10;99.90;;;;;;8330996;28;20025;-81
2023/07/26 12:36:06;;;;;;;3.78;1.77;;;11.10;99.90;;;;;;8327494;28;20020;-85
2023/07/26 12:40:07;;;;;;;3.50;2.25;;;11.00;99.90;;;;;;8357546;28;20486;-85
2023/07/26 12:44:08;;;;;;;3.22;2.15;;;10.90;99.90;;;;;;8353196;28;20059;-84
2023/07/26 12:48:08;;;;;;;3.05;2.17;;;11.00;99.90;;;;;;8350647;28;20042;-85
2023/07/26 12:52:09;;;;;;;4.05;2.35;;;11.20;99.90;;;;;;8339686;28;20394;-85
2023/07/26 12:56:10;;;;;;;4.32;2.38;;;11.50;99.90;;;;;;8348926;28;20034;-86
2023/07/26 13:00:11;;;;;;;2.20;2.00;;;12.20;99.90;;;;;;8344325;28;20029;-85
2023/07/26 13:04:11;;;;;;;3.55;1.60;;;13.20;99.90;;;;;;8338850;28;20071;-87
2023/07/26 13:08:12;;;;;;;4.90;1.90;;;14.30;99.90;;;;;;8361337;28;20450;-86
2023/07/26 13:12:12;;;;;;;2.15;1.40;;;16.80;99.90;;;;;;8335367;28;20071;-86
2023/07/26 13:16:13;;;;;;;2.35;1.30;;;18.70;99.90;;;;;;8350883;28;20464;-85
2023/07/26 13:20:14;;;;;;;2.47;1.70;;;17.80;99.90;;;;;;8348975;28;20033;-85
2023/07/26 13:24:14;;;;;;;2.13;1.40;;;17.10;99.90;;;;;;8340956;28;20033;-85
2023/07/26 13:28:15;;;;;;;2.58;1.45;;;16.40;99.90;;;;;;8337009;28;20033;-86
2023/07/26 13:32:16;;;;;;;3.35;1.50;;;16.20;99.90;;;;;;8314809;28;20052;-87
2023/07/26 13:36:23;;;;;;;2.03;1.55;;;16.20;99.90;;;;;;8333244;28;20478;-86
2023/07/26 13:40:25;;;;;;;2.45;1.30;;;17.30;99.90;;;;;;8344244;28;20096;-87
2023/07/26 13:44:26;;;;;;;2.78;1.70;;;18.20;99.90;;;;;;8329318;28;20533;-89
2023/07/26 13:48:27;;;;;;;3.40;1.17;;;18.30;99.90;;;;;;8340927;28;20037;-88
2023/07/26 13:52:27;;;;;;;2.13;1.60;;;19.40;99.90;;;;;;8349183;28;20040;-87
2023/07/26 13:56:28;;;;;;;1.85;1.70;;;20.30;99.90;;;;;;8340279;28;20033;-87
2023/07/26 14:00:28;;;;;;;1.90;1.50;;;21.40;99.90;;;;;;8349444;28;20032;-85
2023/07/26 14:04:29;;;;;;;3.15;1.90;;;22.70;99.90;;;;;;8326791;28;20112;-85
2023/07/26 14:08:29;;;;;;;2.05;1.50;;;20.90;99.90;;;;;;8332199;28;20026;-84
2023/07/26 14:12:30;;;;;;;1.70;1.42;;;19.50;99.90;;;;;;8332819;28;20435;-85
2023/07/26 14:16:31;;;;;;;2.83;1.80;;;18.80;99.90;;;;;;8325668;28;20033;-84
2023/07/26 14:20:32;;;;;;;5.00;1.88;;;18.60;99.90;;;;;;8350467;28;20021;-85
2023/07/26 14:24:33;;;;;;;3.55;2.38;;;19.10;99.90;;;;;;8334583;28;20040;-85
2023/07/26 14:28:33;;;;;;;2.60;1.70;;;19.70;99.90;;;;;;8337026;28;20029;-83
2023/07/26 14:32:34;;;;;;;2.47;1.65;;;19.60;99.90;;;;;;8329925;28;20120;-84
2023/07/26 14:36:34;;;;;;;2.90;1.63;;;18.80;99.90;;;;;;8338113;28;20037;-84
2023/07/26 14:40:35;;;;;;;2.53;1.60;;;19.60;99.90;;;;;;8340339;28;20029;-83
2023/07/26 14:44:36;;;;;;;3.50;1.85;;;19.90;99.90;;;;;;8350139;28;20033;-84
2023/07/26 14:48:36;;;;;;;3.30;2.03;;;19.10;99.90;;;;;;8337664;28;20032;-82
2023/07/26 14:52:37;;;;;;;2.80;1.63;;;18.70;99.90;;;;;;8351051;28;20099;-83
2023/07/26 14:56:37;;;;;;;2.90;1.77;;;19.00;99.90;;;;;;8339811;28;20087;-82
2023/07/26 15:00:38;;;;;;;2.92;2.10;;;19.40;99.90;;;;;;8346387;28;20025;-82
2023/07/26 15:04:38;;;;;;;3.55;2.45;;;19.50;99.90;;;;;;8339289;28;20033;-82
2023/07/26 15:08:39;;;;;;;2.85;1.50;;;20.30;99.90;;;;;;8337363;28;20100;-83
2023/07/26 15:12:39;;;;;;;3.55;2.00;;;20.90;99.90;;;;;;8337617;28;20018;-83
2023/07/26 15:16:40;;;;;;;2.78;1.75;;;21.20;99.90;;;;;;8347266;28;20025;-82
2023/07/26 15:20:41;;;;;;;3.25;1.85;;;22.30;99.90;;;;;;8346132;28;20029;-82
2023/07/26 15:24:41;;;;;;;3.78;1.80;;;22.20;99.90;;;;;;8347659;28;20490;-80
2023/07/26 15:28:42;;;;;;;4.50;2.00;;;22.20;99.90;;;;;;8338068;28;20023;-81
2023/07/26 15:32:42;;;;;;;3.22;1.90;;;21.10;99.90;;;;;;8348066;28;20379;-82
2023/07/26 15:36:44;;;;;;;2.55;2.03;;;19.60;99.90;;;;;;8338607;28;20022;-82
2023/07/26 15:40:47;;;;;;;2.90;2.00;;;18.70;99.90;;;;;;8339033;28;20033;-82
2023/07/26 15:44:47;;;;;;;3.08;1.95;;;18.40;99.90;;;;;;8347809;28;20049;-81
2023/07/26 15:48:48;;;;;;;3.45;1.88;;;17.80;99.90;;;;;;8360756;28;20453;-82
2023/07/26 15:52:48;;;;;;;2.50;2.05;;;17.80;99.90;;;;;;8346390;28;20104;-82
2023/07/26 15:56:49;;;;;;;2.55;2.00;;;18.00;99.90;;;;;;8286758;23;20051;-78
2023/07/26 16:00:50;;;;;;;3.83;2.13;;;18.50;99.90;;;;;;8219553;28;20090;-78
2023/07/26 16:04:50;;;;;;;2.25;1.58;;;18.70;99.90;;;;;;8229208;28;20404;-77
2023/07/26 16:08:51;;;;;;;2.47;1.90;;;18.40;99.90;;;;;;8237965;28;20433;-78
2023/07/26 16:12:51;;;;;;;4.10;2.10;;;18.60;99.90;;;;;;8235941;28;20022;-77
2023/07/26 16:16:52;;;;;;;3.25;1.95;;;18.80;99.90;;;;;;8225720;28;20034;-78
2023/07/26 16:20:53;;;;;;;3.70;2.05;;;18.70;99.90;;;;;;8242168;28;20023;-78
2023/07/26 16:24:53;;;;;;;2.38;1.67;;;18.40;99.90;;;;;;8222532;28;20035;-78
2023/07/26 16:28:54;;;;;;;2.83;2.33;;;17.80;99.90;;;;;;8226756;28;20043;-77
2023/07/26 16:32:54;;;;;;;3.00;2.13;;;17.30;99.90;;;;;;8221412;28;20027;-79
2023/07/26 16:36:55;;;;;;;2.17;1.85;;;17.00;99.90;;;;;;8221850;28;20641;-78
2023/07/26 16:40:55;;;;;;;3.70;2.35;;;17.00;99.90;;;;;;8219557;28;20030;-79
2023/07/26 16:44:56;;;;;;;2.10;1.85;;;16.90;99.90;;;;;;8228576;28;20077;-78
2023/07/26 16:48:56;;;;;;;3.58;1.85;;;16.80;99.90;;;;;;8230537;28;20743;-77
2023/07/26 16:52:57;;;;;;;2.70;2.20;;;16.80;99.90;;;;;;8211391;28;20035;-78
2023/07/26 16:56:57;;;;;;;2.95;2.13;;;16.60;99.90;;;;;;8205122;28;20135;-77
2023/07/26 17:00:58;;;;;;;3.42;2.10;;;16.40;99.90;;;;;;8235083;28;20042;-77
2023/07/26 17:04:59;;;;;;;2.90;2.17;;;16.30;99.90;;;;;;8227907;28;20396;-78
2023/07/26 17:08:59;;;;;;;2.83;1.95;;;16.70;99.90;;;;;;8212932;28;20031;-78
2023/07/26 17:13:00;;;;;;;4.03;2.00;;;16.80;99.90;;;;;;8212768;28;20031;-76
2023/07/26 17:17:00;;;;;;;3.80;2.08;;;16.60;99.90;;;;;;8220018;28;20035;-76
2023/07/26 17:21:02;;;;;;;2.38;2.03;;;16.30;99.90;;;;;;8212363;28;20488;-78
2023/07/26 17:25:03;;;;;;;2.15;1.88;;;16.00;99.90;;;;;;8222714;28;20027;-78
2023/07/26 17:29:04;;;;;;;2.65;2.15;;;15.90;99.90;;;;;;8215775;28;20024;-77
2023/07/26 17:33:05;;;;;;;2.38;1.60;;;15.80;99.90;;;;;;8216666;28;20105;-78
2023/07/26 17:37:06;;;;;;;3.00;1.98;;;15.70;99.90;;;;;;8226915;28;20095;-78
2023/07/26 17:41:07;;;;;;;2.85;1.98;;;15.90;99.90;;;;;;8222045;28;20117;-78
2023/07/26 17:45:08;;;;;;;3.35;2.10;;;15.80;99.90;;;;;;8227806;28;20049;-77
2023/07/26 17:49:08;;;;;;;3.03;1.88;;;15.60;99.90;;;;;;8229202;28;20033;-79
2023/07/26 17:53:09;;;;;;;3.00;2.15;;;15.60;99.90;;;;;;8239998;28;20027;-78
2023/07/26 17:57:10;;;;;;;2.85;2.20;;;15.50;99.90;;;;;;8210402;28;20066;-78
2023/07/26 18:01:10;;;;;;;3.00;1.85;;;15.30;99.90;;;;;;8221441;28;20026;-77
2023/07/26 18:05:11;;;;;;;3.15;2.08;;;15.30;99.90;;;;;;8223695;28;20217;-78
2023/07/26 18:09:12;;;;;;;3.08;2.05;;;15.20;99.90;;;;;;8207490;28;20035;-78
2023/07/26 18:13:13;;;;;;;4.05;1.83;;;15.20;99.90;;;;;;8216008;28;20042;-78
2023/07/26 18:17:13;;;;;;;4.93;1.98;;;15.10;99.90;;;;;;8230837;28;20026;-77
2023/07/26 18:21:14;;;;;;;2.08;1.80;;;15.00;99.90;;;;;;8221499;28;20031;-78
2023/07/26 18:25:15;;;;;;;2.40;1.90;;;14.80;99.90;;;;;;8233565;28;20091;-77
2023/07/26 18:29:15;;;;;;;3.28;1.75;;;14.40;99.90;;;;;;8233794;28;20562;-78
2023/07/26 18:33:16;;;;;;;2.60;2.05;;;14.20;99.90;;;;;;8213762;28;20063;-77
2023/07/26 18:37:16;;;;;;;3.22;1.95;;;14.20;99.90;;;;;;8235846;28;20403;-78
2023/07/26 18:41:17;;;;;;;2.47;1.80;;;14.00;99.90;;;;;;8215805;28;20027;-78
2023/07/26 18:45:18;;;;;;;2.50;2.10;;;13.80;99.90;;;;;;8232449;28;20139;-77
2023/07/26 18:49:18;;;;;;;3.25;2.10;;;13.70;99.90;;;;;;8235397;28;20457;-78
2023/07/26 18:53:19;;;;;;;3.05;1.88;;;13.50;99.90;;;;;;8219598;28;20023;-78
2023/07/26 18:57:19;;;;;;;5.05;2.10;;;13.30;99.90;;;;;;8232613;28;20030;-78
2023/07/26 19:01:20;;;;;;;3.25;2.20;;;13.20;99.90;;;;;;8231711;28;20023;-78
2023/07/26 19:05:20;;;;;;;3.88;2.30;;;13.00;99.90;;;;;;8244808;28;20026;-80
2023/07/26 19:09:21;;;;;;;3.47;2.20;;;13.00;99.90;;;;;;8237533;28;20023;-78
2023/07/26 19:13:21;;;;;;;3.25;2.42;;;12.80;99.90;;;;;;8234526;28;20086;-78
2023/07/26 19:17:22;;;;;;;4.65;2.35;;;12.70;99.90;;;;;;8232528;28;20421;-78
2023/07/26 19:21:22;;;;;;;3.50;2.03;;;12.60;99.90;;;;;;8213809;28;20054;-78
2023/07/26 19:25:23;;;;;;;4.85;2.00;;;12.50;99.90;;;;;;8231989;28;20085;-78
2023/07/26 19:29:27;;;;;;;2.85;1.98;;;12.60;99.90;;;;;;8214606;28;20607;-78
2023/07/26 19:33:28;;;;;;;3.35;2.08;;;12.50;99.90;;;;;;8229133;28;20086;-78
2023/07/26 19:37:29;;;;;;;3.45;2.13;;;12.30;99.90;;;;;;8213459;28;20098;-78
2023/07/26 19:41:29;;;;;;;3.85;2.38;;;12.20;99.90;;;;;;8237039;28;20733;-78
2023/07/26 19:45:30;;;;;;;2.75;2.20;;;12.00;99.90;;;;;;8218936;28;20425;-78
2023/07/26 19:49:30;;;;;;;3.63;2.53;;;11.90;99.90;;;;;;8233632;28;20027;-78
2023/07/26 19:53:31;;;;;;;3.08;2.30;;;11.80;99.90;;;;;;8226220;28;20070;-78
2023/07/26 19:57:32;;;;;;;3.90;2.30;;;11.70;99.90;;;;;;8217094;28;20070;-78
2023/07/26 20:01:32;;;;;;;3.92;2.30;;;11.70;99.90;;;;;;8205291;28;20220;-78
2023/07/26 20:05:34;;;;;;;3.42;2.67;;;11.50;99.90;;;;;;8223099;28;20039;-77
2023/07/26 20:09:34;;;;;;;4.22;2.35;;;11.40;99.90;;;;;;8215240;28;20393;-77
2023/07/26 20:13:39;;;;;;;3.80;2.67;;;11.50;99.90;;;;;;8216166;28;20065;-78
2023/07/26 20:17:39;;;;;;;3.75;2.78;;;11.30;99.90;;;;;;8211419;28;20023;-78
2023/07/26 20:21:40;;;;;;;4.43;2.58;;;11.20;99.90;;;;;;8219030;28;20031;-78
2023/07/26 20:25:43;;;;;;;4.25;2.80;;;11.00;99.90;;;;;;8232729;28;20102;-78
2023/07/26 20:29:43;;;;;;;5.55;2.92;;;10.90;99.90;;;;;;8226648;28;20031;-77
2023/07/26 20:33:44;;;;;;;3.05;2.72;;;11.10;99.90;;;;;;8235492;28;20027;-78
2023/07/26 20:37:45;;;;;;;4.72;2.78;;;11.00;99.90;;;;;;8217996;28;20035;-78
2023/07/26 20:41:45;;;;;;;3.80;2.17;;;10.70;99.90;;;;;;8209880;28;20089;-78
2023/07/26 20:45:46;;;;;;;4.20;2.67;;;10.80;99.90;;;;;;8238834;28;20049;-77
2023/07/26 20:49:46;;;;;;;3.75;2.70;;;10.50;99.90;;;;;;8217988;28;20029;-77
2023/07/26 20:53:47;;;;;;;5.95;3.00;;;10.40;99.90;;;;;;8236690;28;20025;-78
2023/07/26 20:57:47;;;;;;;3.40;2.25;;;10.30;99.90;;;;;;8242757;28;20412;-77
2023/07/26 21:01:48;;;;;;;3.00;2.70;;;10.10;99.90;;;;;;8227882;28;20022;-77
2023/07/26 21:05:48;;;;;;;3.28;2.60;;;10.10;99.90;;;;;;8237128;28;20034;-77
2023/07/26 21:09:49;;;;;;;7.13;2.40;;;9.90;99.90;;;;;;8206285;28;20527;-78
2023/07/26 21:13:50;;;;;;;4.55;2.70;;;9.90;99.90;;;;;;8227566;28;20401;-78
2023/07/26 21:17:50;;;;;;;5.57;2.80;;;9.80;99.90;;;;;;8211486;28;20118;-76
2023/07/26 21:21:51;;;;;;;5.13;2.58;;;9.70;99.90;;;;;;8220064;28;20405;-78
2023/07/26 21:25:51;;;;;;;4.65;2.60;;;9.60;99.90;;;;;;8227304;28;20033;-78